sensor_id;sensor_type;location;lat;lon;timestamp;temperature;humidity
64670;DHT22;51080;51.690;5.174;2023-04-06T00:01:42;5.90;50.20
64670;DHT22;51080;51.690;5.174;2023-04-06T00:07:25;5.80;50.20
64670;DHT22;51080;51.690;5.174;2023-04-06T00:13:10;5.80;50.40
64670;DHT22;51080;51.690;5.174;2023-04-06T00:18:55;5.70;50.30
64670;DHT22;51080;51.690;5.174;2023-04-06T00:24:39;5.70;50.30
64670;DHT22;51080;51.690;5.174;2023-04-06T00:30:24;5.70;50.50
64670;DHT22;51080;51.690;5.174;2023-04-06T01:00:41;5.40;51.60
64670;DHT22;51080;51.690;5.174;2023-04-06T01:06:25;5.50;50.70
64670;DHT22;51080;51.690;5.174;2023-04-06T01:12:10;5.50;50.80
64670;DHT22;51080;51.690;5.174;2023-04-06T01:18:28;5.50;51.10
64670;DHT22;51080;51.690;5.174;2023-04-06T01:24:14;5.50;52.00
64670;DHT22;51080;51.690;5.174;2023-04-06T01:29:58;5.50;51.30
64670;DHT22;51080;51.690;5.174;2023-04-06T01:35:42;5.50;51.50
64670;DHT22;51080;51.690;5.174;2023-04-06T01:41:57;5.50;51.50
64670;DHT22;51080;51.690;5.174;2023-04-06T01:47:42;5.50;52.20
64670;DHT22;51080;51.690;5.174;2023-04-06T01:53:56;5.50;51.70
64670;DHT22;51080;51.690;5.174;2023-04-06T01:59:40;5.50;52.60
64670;DHT22;51080;51.690;5.174;2023-04-06T02:05:25;5.50;52.00
64670;DHT22;51080;51.690;5.174;2023-04-06T02:11:10;5.50;51.80
64670;DHT22;51080;51.690;5.174;2023-04-06T02:16:54;5.60;52.10
64670;DHT22;51080;51.690;5.174;2023-04-06T02:22:40;5.60;52.00
64670;DHT22;51080;51.690;5.174;2023-04-06T02:28:24;5.60;52.20
64670;DHT22;51080;51.690;5.174;2023-04-06T02:34:09;5.70;52.40
64670;DHT22;51080;51.690;5.174;2023-04-06T02:39:54;5.70;52.00
64670;DHT22;51080;51.690;5.174;2023-04-06T02:45:38;5.70;52.10
64670;DHT22;51080;51.690;5.174;2023-04-06T02:51:22;5.80;52.40
64670;DHT22;51080;51.690;5.174;2023-04-06T02:57:06;5.70;52.40
64670;DHT22;51080;51.690;5.174;2023-04-06T03:02:51;5.70;51.90
64670;DHT22;51080;51.690;5.174;2023-04-06T03:08:35;5.80;51.70
64670;DHT22;51080;51.690;5.174;2023-04-06T03:14:21;5.80;52.20
64670;DHT22;51080;51.690;5.174;2023-04-06T03:20:06;5.80;51.80
64670;DHT22;51080;51.690;5.174;2023-04-06T03:25:50;5.80;51.70
64670;DHT22;51080;51.690;5.174;2023-04-06T03:32:05;5.80;51.70
64670;DHT22;51080;51.690;5.174;2023-04-06T03:37:49;5.80;51.90
64670;DHT22;51080;51.690;5.174;2023-04-06T03:43:34;5.80;51.50
64670;DHT22;51080;51.690;5.174;2023-04-06T03:49:19;5.70;51.70
64670;DHT22;51080;51.690;5.174;2023-04-06T03:55:04;5.70;51.60
64670;DHT22;51080;51.690;5.174;2023-04-06T04:00:49;5.70;51.90
64670;DHT22;51080;51.690;5.174;2023-04-06T04:06:34;5.80;52.10
64670;DHT22;51080;51.690;5.174;2023-04-06T04:12:49;5.80;51.90
64670;DHT22;51080;51.690;5.174;2023-04-06T04:18:34;5.80;51.90
64670;DHT22;51080;51.690;5.174;2023-04-06T04:24:19;5.90;51.90
64670;DHT22;51080;51.690;5.174;2023-04-06T04:30:05;5.90;52.00
64670;DHT22;51080;51.690;5.174;2023-04-06T04:35:50;5.90;51.90
64670;DHT22;51080;51.690;5.174;2023-04-06T04:41:35;6.00;52.00
64670;DHT22;51080;51.690;5.174;2023-04-06T04:47:20;6.00;52.20
64670;DHT22;51080;51.690;5.174;2023-04-06T04:53:05;6.00;52.10
64670;DHT22;51080;51.690;5.174;2023-04-06T04:58:49;6.00;52.30
64670;DHT22;51080;51.690;5.174;2023-04-06T05:04:35;6.00;52.20
64670;DHT22;51080;51.690;5.174;2023-04-06T05:10:49;6.00;52.50
64670;DHT22;51080;51.690;5.174;2023-04-06T05:16:34;6.10;52.30
64670;DHT22;51080;51.690;5.174;2023-04-06T05:22:18;6.10;52.20
64670;DHT22;51080;51.690;5.174;2023-04-06T05:28:32;6.10;52.30
64670;DHT22;51080;51.690;5.174;2023-04-06T05:34:16;6.10;53.00
64670;DHT22;51080;51.690;5.174;2023-04-06T05:40:00;6.20;52.40
64670;DHT22;51080;51.690;5.174;2023-04-06T05:46:14;6.10;52.20
64670;DHT22;51080;51.690;5.174;2023-04-06T05:51:58;6.20;52.30
64670;DHT22;51080;51.690;5.174;2023-04-06T05:57:40;6.20;52.30
64670;DHT22;51080;51.690;5.174;2023-04-06T06:03:24;6.20;52.70
64670;DHT22;51080;51.690;5.174;2023-04-06T06:09:08;6.30;52.90
64670;DHT22;51080;51.690;5.174;2023-04-06T06:14:52;6.30;52.90
64670;DHT22;51080;51.690;5.174;2023-04-06T06:20:36;6.40;53.00
64670;DHT22;51080;51.690;5.174;2023-04-06T06:26:19;6.50;53.00
64670;DHT22;51080;51.690;5.174;2023-04-06T06:32:03;6.50;53.20
64670;DHT22;51080;51.690;5.174;2023-04-06T06:37:48;6.60;53.70
64670;DHT22;51080;51.690;5.174;2023-04-06T06:43:31;6.60;53.50
64670;DHT22;51080;51.690;5.174;2023-04-06T06:49:15;6.60;54.00
64670;DHT22;51080;51.690;5.174;2023-04-06T06:54:59;6.60;54.20
64670;DHT22;51080;51.690;5.174;2023-04-06T07:00:43;6.70;54.40
64670;DHT22;51080;51.690;5.174;2023-04-06T07:06:28;6.70;54.40
64670;DHT22;51080;51.690;5.174;2023-04-06T07:12:12;6.80;54.10
64670;DHT22;51080;51.690;5.174;2023-04-06T07:17:56;6.90;54.40
64670;DHT22;51080;51.690;5.174;2023-04-06T07:23:39;7.00;54.70
64670;DHT22;51080;51.690;5.174;2023-04-06T07:29:23;7.00;54.90
64670;DHT22;51080;51.690;5.174;2023-04-06T07:35:07;7.10;54.80
64670;DHT22;51080;51.690;5.174;2023-04-06T07:40:50;7.20;55.40
64670;DHT22;51080;51.690;5.174;2023-04-06T07:46:34;7.30;55.00
64670;DHT22;51080;51.690;5.174;2023-04-06T07:52:18;7.30;55.60
64670;DHT22;51080;51.690;5.174;2023-04-06T07:58:01;7.40;55.50
64670;DHT22;51080;51.690;5.174;2023-04-06T08:03:45;7.50;55.50
64670;DHT22;51080;51.690;5.174;2023-04-06T08:09:29;7.60;55.30
64670;DHT22;51080;51.690;5.174;2023-04-06T08:15:13;7.70;55.60
64670;DHT22;51080;51.690;5.174;2023-04-06T08:20:56;7.90;55.20
64670;DHT22;51080;51.690;5.174;2023-04-06T08:26:40;8.10;54.50
64670;DHT22;51080;51.690;5.174;2023-04-06T08:32:25;8.30;54.60
64670;DHT22;51080;51.690;5.174;2023-04-06T08:38:09;8.40;54.90
64670;DHT22;51080;51.690;5.174;2023-04-06T08:43:58;8.60;54.50
64670;DHT22;51080;51.690;5.174;2023-04-06T08:49:43;8.80;54.30
64670;DHT22;51080;51.690;5.174;2023-04-06T08:55:27;9.00;54.20
64670;DHT22;51080;51.690;5.174;2023-04-06T09:01:13;9.20;54.60
64670;DHT22;51080;51.690;5.174;2023-04-06T09:06:57;9.30;55.20
64670;DHT22;51080;51.690;5.174;2023-04-06T09:12:41;9.30;56.50
64670;DHT22;51080;51.690;5.174;2023-04-06T09:18:29;9.30;58.00
64670;DHT22;51080;51.690;5.174;2023-04-06T09:24:12;9.30;58.30
64670;DHT22;51080;51.690;5.174;2023-04-06T09:30:08;9.30;59.40
64670;DHT22;51080;51.690;5.174;2023-04-06T09:35:52;9.40;59.90
64670;DHT22;51080;51.690;5.174;2023-04-06T09:41:36;9.40;60.80
64670;DHT22;51080;51.690;5.174;2023-04-06T09:47:50;9.30;61.40
64670;DHT22;51080;51.690;5.174;2023-04-06T09:53:37;9.20;64.80
64670;DHT22;51080;51.690;5.174;2023-04-06T10:06:00;8.80;65.50
64670;DHT22;51080;51.690;5.174;2023-04-06T10:11:47;8.70;71.70
64670;DHT22;51080;51.690;5.174;2023-04-06T10:17:32;8.60;70.60
64670;DHT22;51080;51.690;5.174;2023-04-06T10:29:21;8.30;71.50
64670;DHT22;51080;51.690;5.174;2023-04-06T10:35:10;8.30;72.80
64670;DHT22;51080;51.690;5.174;2023-04-06T10:41:03;8.20;73.50
64670;DHT22;51080;51.690;5.174;2023-04-06T10:46:56;8.10;74.70
64670;DHT22;51080;51.690;5.174;2023-04-06T10:52:41;8.20;74.20
64670;DHT22;51080;51.690;5.174;2023-04-06T10:58:27;8.30;75.20
64670;DHT22;51080;51.690;5.174;2023-04-06T11:04:19;8.40;75.30
64670;DHT22;51080;51.690;5.174;2023-04-06T11:10:04;8.50;75.50
64670;DHT22;51080;51.690;5.174;2023-04-06T11:15:48;8.60;74.70
64670;DHT22;51080;51.690;5.174;2023-04-06T11:21:40;8.70;75.20
64670;DHT22;51080;51.690;5.174;2023-04-06T11:27:25;8.80;75.30
64670;DHT22;51080;51.690;5.174;2023-04-06T11:33:09;9.00;76.20
64670;DHT22;51080;51.690;5.174;2023-04-06T11:38:53;9.10;75.40
64670;DHT22;51080;51.690;5.174;2023-04-06T11:44:43;9.10;75.10
64670;DHT22;51080;51.690;5.174;2023-04-06T11:50:32;9.10;75.30
64670;DHT22;51080;51.690;5.174;2023-04-06T11:56:29;9.20;75.70
64670;DHT22;51080;51.690;5.174;2023-04-06T12:02:47;9.40;75.10
64670;DHT22;51080;51.690;5.174;2023-04-06T12:08:31;9.40;76.60
64670;DHT22;51080;51.690;5.174;2023-04-06T12:14:15;9.30;74.80
64670;DHT22;51080;51.690;5.174;2023-04-06T12:20:09;9.20;75.30
64670;DHT22;51080;51.690;5.174;2023-04-06T12:25:54;9.00;75.80
64670;DHT22;51080;51.690;5.174;2023-04-06T12:31:37;9.00;76.20
64670;DHT22;51080;51.690;5.174;2023-04-06T12:37:21;9.00;76.30
64670;DHT22;51080;51.690;5.174;2023-04-06T12:43:05;8.90;76.50
64670;DHT22;51080;51.690;5.174;2023-04-06T12:48:49;8.90;77.40
64670;DHT22;51080;51.690;5.174;2023-04-06T12:54:32;8.80;77.50
64670;DHT22;51080;51.690;5.174;2023-04-06T13:00:17;8.70;78.20
64670;DHT22;51080;51.690;5.174;2023-04-06T13:06:01;8.70;78.30
64670;DHT22;51080;51.690;5.174;2023-04-06T13:11:44;8.70;78.00
64670;DHT22;51080;51.690;5.174;2023-04-06T13:17:32;8.70;77.80
64670;DHT22;51080;51.690;5.174;2023-04-06T13:23:16;8.60;79.10
64670;DHT22;51080;51.690;5.174;2023-04-06T13:29:30;8.60;80.00
64670;DHT22;51080;51.690;5.174;2023-04-06T13:35:14;8.60;81.40
64670;DHT22;51080;51.690;5.174;2023-04-06T13:40:58;8.50;79.30
64670;DHT22;51080;51.690;5.174;2023-04-06T13:46:42;8.50;80.00
64670;DHT22;51080;51.690;5.174;2023-04-06T13:52:35;8.40;81.00
64670;DHT22;51080;51.690;5.174;2023-04-06T13:58:18;8.30;81.60
64670;DHT22;51080;51.690;5.174;2023-04-06T14:04:02;8.30;80.60
64670;DHT22;51080;51.690;5.174;2023-04-06T14:09:46;8.40;82.00
64670;DHT22;51080;51.690;5.174;2023-04-06T14:15:31;8.40;81.70
64670;DHT22;51080;51.690;5.174;2023-04-06T14:21:15;8.50;82.30
64670;DHT22;51080;51.690;5.174;2023-04-06T14:26:59;8.60;82.40
64670;DHT22;51080;51.690;5.174;2023-04-06T14:32:42;8.60;82.60
64670;DHT22;51080;51.690;5.174;2023-04-06T14:38:26;8.50;82.70
64670;DHT22;51080;51.690;5.174;2023-04-06T14:44:10;8.50;82.10
64670;DHT22;51080;51.690;5.174;2023-04-06T14:49:53;8.50;81.80
64670;DHT22;51080;51.690;5.174;2023-04-06T14:55:40;8.50;81.40
64670;DHT22;51080;51.690;5.174;2023-04-06T15:01:24;8.50;82.70
64670;DHT22;51080;51.690;5.174;2023-04-06T15:07:07;8.30;82.80
64670;DHT22;51080;51.690;5.174;2023-04-06T15:12:51;8.30;83.70
64670;DHT22;51080;51.690;5.174;2023-04-06T15:18:34;8.30;84.40
64670;DHT22;51080;51.690;5.174;2023-04-06T15:24:18;8.30;83.60
64670;DHT22;51080;51.690;5.174;2023-04-06T15:30:02;8.30;83.40
64670;DHT22;51080;51.690;5.174;2023-04-06T15:35:47;8.30;83.40
64670;DHT22;51080;51.690;5.174;2023-04-06T15:41:32;8.30;83.60
64670;DHT22;51080;51.690;5.174;2023-04-06T15:47:16;8.30;83.90
64670;DHT22;51080;51.690;5.174;2023-04-06T15:53:00;8.30;83.50
64670;DHT22;51080;51.690;5.174;2023-04-06T15:58:43;8.40;84.20
64670;DHT22;51080;51.690;5.174;2023-04-06T16:04:26;8.40;83.90
64670;DHT22;51080;51.690;5.174;2023-04-06T16:10:11;8.40;82.50
64670;DHT22;51080;51.690;5.174;2023-04-06T16:15:55;8.40;82.90
64670;DHT22;51080;51.690;5.174;2023-04-06T16:21:38;8.40;83.60
64670;DHT22;51080;51.690;5.174;2023-04-06T16:27:22;8.40;83.80
64670;DHT22;51080;51.690;5.174;2023-04-06T16:33:06;8.40;84.20
64670;DHT22;51080;51.690;5.174;2023-04-06T16:38:50;8.40;85.70
64670;DHT22;51080;51.690;5.174;2023-04-06T16:44:35;8.40;84.50
64670;DHT22;51080;51.690;5.174;2023-04-06T16:50:20;8.30;85.80
64670;DHT22;51080;51.690;5.174;2023-04-06T16:56:04;8.40;84.60
64670;DHT22;51080;51.690;5.174;2023-04-06T17:01:48;8.40;84.70
64670;DHT22;51080;51.690;5.174;2023-04-06T17:07:32;8.40;84.80
64670;DHT22;51080;51.690;5.174;2023-04-06T17:13:16;8.40;84.70
64670;DHT22;51080;51.690;5.174;2023-04-06T17:19:01;8.40;84.10
64670;DHT22;51080;51.690;5.174;2023-04-06T17:24:46;8.40;83.60
64670;DHT22;51080;51.690;5.174;2023-04-06T17:30:31;8.40;84.20
64670;DHT22;51080;51.690;5.174;2023-04-06T17:36:16;8.50;85.10
64670;DHT22;51080;51.690;5.174;2023-04-06T17:42:02;8.40;85.30
64670;DHT22;51080;51.690;5.174;2023-04-06T17:47:46;8.50;85.40
64670;DHT22;51080;51.690;5.174;2023-04-06T17:53:30;8.50;84.60
64670;DHT22;51080;51.690;5.174;2023-04-06T17:59:14;8.50;84.80
64670;DHT22;51080;51.690;5.174;2023-04-06T18:04:58;8.50;85.10
64670;DHT22;51080;51.690;5.174;2023-04-06T18:10:43;8.50;85.00
64670;DHT22;51080;51.690;5.174;2023-04-06T18:16:27;8.60;86.30
64670;DHT22;51080;51.690;5.174;2023-04-06T18:22:11;8.60;86.70
64670;DHT22;51080;51.690;5.174;2023-04-06T18:27:55;8.60;87.20
64670;DHT22;51080;51.690;5.174;2023-04-06T18:34:09;8.60;85.80
64670;DHT22;51080;51.690;5.174;2023-04-06T18:39:54;8.60;87.00
64670;DHT22;51080;51.690;5.174;2023-04-06T18:46:13;8.70;84.80
64670;DHT22;51080;51.690;5.174;2023-04-06T18:51:58;8.70;85.30
64670;DHT22;51080;51.690;5.174;2023-04-06T18:57:41;8.80;82.90
64670;DHT22;51080;51.690;5.174;2023-04-06T19:03:27;8.80;83.50
64670;DHT22;51080;51.690;5.174;2023-04-06T19:09:12;8.80;84.20
64670;DHT22;51080;51.690;5.174;2023-04-06T19:14:56;8.80;83.90
64670;DHT22;51080;51.690;5.174;2023-04-06T19:20:41;8.90;83.00
64670;DHT22;51080;51.690;5.174;2023-04-06T19:26:26;9.00;83.10
64670;DHT22;51080;51.690;5.174;2023-04-06T19:32:11;9.00;82.80
64670;DHT22;51080;51.690;5.174;2023-04-06T19:37:56;9.00;83.30
64670;DHT22;51080;51.690;5.174;2023-04-06T19:43:41;9.00;83.10
64670;DHT22;51080;51.690;5.174;2023-04-06T19:49:26;9.00;83.30
64670;DHT22;51080;51.690;5.174;2023-04-06T19:55:10;9.10;83.60
64670;DHT22;51080;51.690;5.174;2023-04-06T20:00:54;9.10;83.80
64670;DHT22;51080;51.690;5.174;2023-04-06T20:06:39;9.10;82.60
64670;DHT22;51080;51.690;5.174;2023-04-06T20:12:24;9.20;84.00
64670;DHT22;51080;51.690;5.174;2023-04-06T20:18:09;9.20;84.80
64670;DHT22;51080;51.690;5.174;2023-04-06T20:23:53;9.20;84.50
64670;DHT22;51080;51.690;5.174;2023-04-06T20:29:38;9.30;85.50
64670;DHT22;51080;51.690;5.174;2023-04-06T20:35:23;9.30;84.30
64670;DHT22;51080;51.690;5.174;2023-04-06T20:41:07;9.30;83.70
64670;DHT22;51080;51.690;5.174;2023-04-06T20:46:52;9.30;83.60
64670;DHT22;51080;51.690;5.174;2023-04-06T20:52:37;9.30;84.00
64670;DHT22;51080;51.690;5.174;2023-04-06T20:58:21;9.30;83.00
64670;DHT22;51080;51.690;5.174;2023-04-06T21:04:05;9.30;82.90
64670;DHT22;51080;51.690;5.174;2023-04-06T21:09:51;9.30;83.30
64670;DHT22;51080;51.690;5.174;2023-04-06T21:16:06;9.30;83.40
64670;DHT22;51080;51.690;5.174;2023-04-06T21:22:21;9.30;84.00
64670;DHT22;51080;51.690;5.174;2023-04-06T21:28:06;9.30;83.10
64670;DHT22;51080;51.690;5.174;2023-04-06T21:33:51;9.30;82.60
64670;DHT22;51080;51.690;5.174;2023-04-06T21:39:36;9.30;82.80
64670;DHT22;51080;51.690;5.174;2023-04-06T21:45:22;9.20;82.70
64670;DHT22;51080;51.690;5.174;2023-04-06T21:51:06;9.20;82.40
64670;DHT22;51080;51.690;5.174;2023-04-06T21:56:50;9.20;83.10
64670;DHT22;51080;51.690;5.174;2023-04-06T22:02:37;9.10;82.90
64670;DHT22;51080;51.690;5.174;2023-04-06T22:08:52;9.10;82.60
64670;DHT22;51080;51.690;5.174;2023-04-06T22:14:37;9.10;84.00
64670;DHT22;51080;51.690;5.174;2023-04-06T22:20:21;9.20;82.70
64670;DHT22;51080;51.690;5.174;2023-04-06T22:26:08;9.10;83.00
64670;DHT22;51080;51.690;5.174;2023-04-06T22:31:53;9.10;83.00
64670;DHT22;51080;51.690;5.174;2023-04-06T22:37:42;9.00;82.60
64670;DHT22;51080;51.690;5.174;2023-04-06T22:43:27;9.00;83.10
64670;DHT22;51080;51.690;5.174;2023-04-06T22:49:12;9.00;83.20
64670;DHT22;51080;51.690;5.174;2023-04-06T22:55:26;8.90;83.80
64670;DHT22;51080;51.690;5.174;2023-04-06T23:01:11;8.90;85.70
64670;DHT22;51080;51.690;5.174;2023-04-06T23:06:54;8.80;83.30
64670;DHT22;51080;51.690;5.174;2023-04-06T23:12:38;8.80;83.50
64670;DHT22;51080;51.690;5.174;2023-04-06T23:18:53;8.80;83.00
64670;DHT22;51080;51.690;5.174;2023-04-06T23:24:38;8.80;83.70
64670;DHT22;51080;51.690;5.174;2023-04-06T23:30:22;8.80;83.40
64670;DHT22;51080;51.690;5.174;2023-04-06T23:36:07;8.80;83.20
64670;DHT22;51080;51.690;5.174;2023-04-06T23:41:51;8.70;82.90
64670;DHT22;51080;51.690;5.174;2023-04-06T23:47:36;8.70;82.90
64670;DHT22;51080;51.690;5.174;2023-04-06T23:53:21;8.70;83.50
64670;DHT22;51080;51.690;5.174;2023-04-06T23:59:05;8.70;83.50
